Time;durP1;ratioP1;P1;durP2;ratioP2;P2;SDS_P1;SDS_P2;PMS_P1;PMS_P2;Temp;Humidity;BMP_temperature;BMP_pressure;BME280_temperature;BME280_humidity;BME280_pressure;Samples;Min_cycle;Max_cycle;Signal;HPM_P1;HPM_P2
2022/10/31 00:01:10;;;;;;;1.08;0.60;;;;;;;;;;4945142;29;20031;-88
2022/10/31 00:03:35;;;;;;;1.40;1.17;;;;;;;;;;4947621;29;20472;-88
2022/10/31 00:06:01;;;;;;;0.80;0.70;;;;;;;;;;4940628;29;20023;-88
2022/10/31 00:08:27;;;;;;;2.30;0.90;;;;;;;;;;4942949;29;20043;-87
2022/10/31 00:10:52;;;;;;;0.75;0.60;;;;;;;;;;4946434;29;20030;-88
2022/10/31 00:13:17;;;;;;;0.98;0.75;;;;;;;;;;4945415;29;20480;-88
2022/10/31 00:15:43;;;;;;;1.63;0.95;;;;;;;;;;4938496;29;20472;-88
2022/10/31 00:18:10;;;;;;;1.08;0.80;;;;;;;;;;4942276;29;20048;-87
2022/10/31 00:20:35;;;;;;;0.95;0.65;;;;;;;;;;4945198;29;20039;-87
2022/10/31 00:23:01;;;;;;;1.25;0.80;;;;;;;;;;4946181;29;20142;-87
2022/10/31 00:25:28;;;;;;;2.05;1.17;;;;;;;;;;4946280;29;20032;-87
2022/10/31 00:27:54;;;;;;;1.55;0.88;;;;;;;;;;4944732;29;20023;-87
2022/10/31 00:30:20;;;;;;;1.20;0.68;;;;;;;;;;4940560;29;20486;-87
2022/10/31 00:32:45;;;;;;;1.88;0.70;;;;;;;;;;4944868;29;20114;-87
2022/10/31 00:35:10;;;;;;;0.70;0.52;;;;;;;;;;4946834;29;20047;-88
2022/10/31 00:37:41;;;;;;;0.85;0.70;;;;;;;;;;4944456;29;20028;-87
2022/10/31 00:40:07;;;;;;;0.77;0.68;;;;;;;;;;4941447;29;20476;-88
2022/10/31 00:42:32;;;;;;;1.65;0.80;;;;;;;;;;4944517;29;20082;-88
2022/10/31 00:44:58;;;;;;;2.28;0.82;;;;;;;;;;4942542;29;20027;-87
2022/10/31 00:47:23;;;;;;;1.98;0.70;;;;;;;;;;4945752;29;20027;-88
2022/10/31 00:49:49;;;;;;;6.88;0.85;;;;;;;;;;4944943;29;21576;-86
2022/10/31 00:52:14;;;;;;;2.28;0.93;;;;;;;;;;4945499;29;20130;-87
2022/10/31 00:54:39;;;;;;;2.60;0.98;;;;;;;;;;4946433;28;20020;-87
2022/10/31 00:57:05;;;;;;;0.63;0.45;;;;;;;;;;4939998;29;20116;-88
2022/10/31 00:59:30;;;;;;;1.48;0.85;;;;;;;;;;4940808;29;20028;-88
2022/10/31 01:01:56;;;;;;;1.20;0.95;;;;;;;;;;4946278;29;20047;-88
2022/10/31 01:04:21;;;;;;;1.63;0.65;;;;;;;;;;4941425;29;20384;-87
2022/10/31 01:06:47;;;;;;;0.93;0.70;;;;;;;;;;4945012;29;20047;-87
2022/10/31 01:09:12;;;;;;;0.73;0.50;;;;;;;;;;4945365;29;20094;-88
2022/10/31 01:11:38;;;;;;;0.75;0.60;;;;;;;;;;4943169;29;20035;-88
2022/10/31 01:14:03;;;;;;;2.72;0.80;;;;;;;;;;4943093;29;20027;-87
2022/10/31 01:16:29;;;;;;;0.88;0.65;;;;;;;;;;4945320;29;20046;-88
2022/10/31 01:18:55;;;;;;;5.32;1.17;;;;;;;;;;4937898;29;20067;-87
2022/10/31 01:21:23;;;;;;;0.55;0.55;;;;;;;;;;4935685;29;20031;-88
2022/10/31 01:23:50;;;;;;;1.10;1.00;;;;;;;;;;4947763;29;20027;-87
2022/10/31 01:26:18;;;;;;;1.45;1.00;;;;;;;;;;4942464;29;20027;-87
2022/10/31 01:28:49;;;;;;;1.25;0.70;;;;;;;;;;4942291;29;20039;-88
2022/10/31 01:31:16;;;;;;;3.13;0.80;;;;;;;;;;4947572;29;20109;-86
2022/10/31 01:33:42;;;;;;;1.52;1.10;;;;;;;;;;4946190;29;20019;-87
2022/10/31 01:36:23;;;;;;;1.45;0.80;;;;;;;;;;4942122;29;20027;-87
2022/10/31 01:38:50;;;;;;;1.65;1.15;;;;;;;;;;4943714;29;20114;-87
2022/10/31 01:41:20;;;;;;;1.02;0.93;;;;;;;;;;4940042;29;20023;-87
2022/10/31 01:43:51;;;;;;;6.63;1.13;;;;;;;;;;4957134;28;20456;-86
2022/10/31 01:46:21;;;;;;;0.77;0.57;;;;;;;;;;4943282;29;20133;-87
2022/10/31 01:48:48;;;;;;;1.45;1.02;;;;;;;;;;4946038;29;20050;-87
2022/10/31 01:51:15;;;;;;;2.10;0.90;;;;;;;;;;4942528;29;20037;-87
2022/10/31 01:53:43;;;;;;;0.60;0.60;;;;;;;;;;4940775;29;20031;-88
2022/10/31 01:56:08;;;;;;;4.82;1.23;;;;;;;;;;4943535;29;20035;-86
2022/10/31 01:58:34;;;;;;;4.40;1.33;;;;;;;;;;4940135;29;20031;-87
2022/10/31 02:01:01;;;;;;;6.45;1.10;;;;;;;;;;4948251;29;20058;-85
2022/10/31 02:03:28;;;;;;;1.40;0.77;;;;;;;;;;4940750;29;20027;-86
2022/10/31 02:05:56;;;;;;;1.90;1.20;;;;;;;;;;4959291;28;20039;-86
2022/10/31 02:08:22;;;;;;;0.98;0.88;;;;;;;;;;4939155;29;20039;-87
2022/10/31 02:10:47;;;;;;;3.22;1.17;;;;;;;;;;4939632;29;20031;-86
2022/10/31 02:13:13;;;;;;;3.63;1.27;;;;;;;;;;4946040;29;20027;-85
2022/10/31 02:15:40;;;;;;;2.20;1.00;;;;;;;;;;4940271;29;20030;-85
2022/10/31 02:18:07;;;;;;;2.30;0.98;;;;;;;;;;4944552;29;20412;-86
2022/10/31 02:20:42;;;;;;;1.42;0.85;;;;;;;;;;4939294;29;20086;-86
2022/10/31 02:23:32;;;;;;;0.75;0.65;;;;;;;;;;4937227;29;20046;-86
2022/10/31 02:26:11;;;;;;;1.30;0.82;;;;;;;;;;4956493;28;20078;-86
2022/10/31 02:28:55;;;;;;;1.70;1.13;;;;;;;;;;4942691;29;20075;-86
2022/10/31 02:31:20;;;;;;;0.57;0.55;;;;;;;;;;4941468;29;20464;-88
2022/10/31 02:33:50;;;;;;;1.80;1.10;;;;;;;;;;4943745;29;20051;-86
2022/10/31 02:36:26;;;;;;;0.90;0.73;;;;;;;;;;4930863;29;20515;-86
2022/10/31 02:39:50;;;;;;;0.98;0.60;;;;;;;;;;4938125;29;20086;-85
2022/10/31 02:42:53;;;;;;;1.27;0.93;;;;;;;;;;4922831;29;20484;-86
2022/10/31 02:45:35;;;;;;;1.23;0.80;;;;;;;;;;4934355;29;20032;-89
2022/10/31 02:48:08;;;;;;;0.73;0.73;;;;;;;;;;4940349;29;20035;-87
2022/10/31 02:50:37;;;;;;;1.65;0.93;;;;;;;;;;4945337;29;20035;-86
2022/10/31 02:53:03;;;;;;;2.93;1.10;;;;;;;;;;4939901;29;20083;-85
2022/10/31 02:55:28;;;;;;;1.85;1.13;;;;;;;;;;4941885;29;20261;-86
2022/10/31 02:58:00;;;;;;;1.75;1.13;;;;;;;;;;4945057;29;20429;-86
2022/10/31 03:00:25;;;;;;;3.95;1.58;;;;;;;;;;4940016;29;20494;-85
2022/10/31 03:03:13;;;;;;;2.28;1.05;;;;;;;;;;4943638;29;20043;-85
2022/10/31 03:06:20;;;;;;;0.95;0.93;;;;;;;;;;4949154;28;20035;-84
2022/10/31 03:08:56;;;;;;;1.25;0.90;;;;;;;;;;4916267;28;20122;-90
2022/10/31 03:11:29;;;;;;;3.17;1.52;;;;;;;;;;4937909;29;20559;-90
2022/10/31 03:14:09;;;;;;;1.77;1.23;;;;;;;;;;4939145;29;20027;-87
2022/10/31 03:16:34;;;;;;;;;;;;;;;;;;4939117;29;20456;-88
2022/10/31 03:19:09;;;;;;;2.42;1.23;;;;;;;;;;4942760;29;19943;-90
2022/10/31 03:21:38;;;;;;;1.55;1.05;;;;;;;;;;4948959;29;20506;-88
2022/10/31 03:24:06;;;;;;;1.20;1.00;;;;;;;;;;4949709;29;20110;-89
2022/10/31 03:26:34;;;;;;;1.60;0.90;;;;;;;;;;4944354;29;20035;-88
2022/10/31 03:29:06;;;;;;;2.30;1.23;;;;;;;;;;4943486;29;20036;-89
2022/10/31 03:31:36;;;;;;;1.17;0.82;;;;;;;;;;4948586;29;20047;-88
2022/10/31 03:34:03;;;;;;;2.22;0.90;;;;;;;;;;4946299;29;20097;-88
2022/10/31 03:36:35;;;;;;;2.35;1.20;;;;;;;;;;4943328;29;20028;-88
2022/10/31 03:39:04;;;;;;;1.38;0.90;;;;;;;;;;4935917;29;20404;-88
2022/10/31 03:41:35;;;;;;;2.00;1.15;;;;;;;;;;4959652;28;20023;-88
2022/10/31 03:44:09;;;;;;;0.80;0.77;;;;;;;;;;4935504;29;20058;-89
2022/10/31 03:46:35;;;;;;;1.75;0.88;;;;;;;;;;4949763;29;20077;-87
2022/10/31 03:49:01;;;;;;;1.48;1.00;;;;;;;;;;4946894;29;20480;-88
2022/10/31 03:51:38;;;;;;;1.52;1.05;;;;;;;;;;4940646;29;20036;-88
2022/10/31 03:54:23;;;;;;;1.30;0.63;;;;;;;;;;4956001;28;20098;-88
2022/10/31 03:56:55;;;;;;;1.40;0.90;;;;;;;;;;4959972;28;20027;-88
2022/10/31 03:59:27;;;;;;;0.88;0.70;;;;;;;;;;4953936;28;20066;-87
2022/10/31 04:01:57;;;;;;;1.98;1.20;;;;;;;;;;4944506;29;20115;-89
2022/10/31 04:04:24;;;;;;;1.23;0.75;;;;;;;;;;4942271;29;20028;-88
2022/10/31 04:06:52;;;;;;;2.72;1.13;;;;;;;;;;4940022;29;20097;-89
2022/10/31 04:09:19;;;;;;;2.10;1.77;;;;;;;;;;4938634;29;20114;-88
2022/10/31 04:11:52;;;;;;;2.33;1.15;;;;;;;;;;4942340;29;20551;-87
2022/10/31 04:14:18;;;;;;;1.58;1.08;;;;;;;;;;4946419;29;20030;-89
2022/10/31 04:16:51;;;;;;;1.35;0.85;;;;;;;;;;4939828;29;20031;-89
2022/10/31 04:19:16;;;;;;;1.98;0.98;;;;;;;;;;4944427;29;20421;-88
2022/10/31 04:21:43;;;;;;;2.42;1.10;;;;;;;;;;4942416;29;20110;-89
2022/10/31 04:24:09;;;;;;;3.05;1.45;;;;;;;;;;4940586;29;20032;-88
2022/10/31 04:26:34;;;;;;;0.80;0.70;;;;;;;;;;4945244;29;20035;-87
2022/10/31 04:29:00;;;;;;;1.17;0.82;;;;;;;;;;4949076;28;20027;-88
2022/10/31 04:31:26;;;;;;;1.42;0.90;;;;;;;;;;4940095;29;20027;-88
2022/10/31 04:33:51;;;;;;;0.70;0.57;;;;;;;;;;4942277;29;20055;-83
2022/10/31 04:36:16;;;;;;;0.93;0.68;;;;;;;;;;4938825;29;20039;-82
2022/10/31 04:38:42;;;;;;;1.80;0.95;;;;;;;;;;4934919;29;20027;-85
2022/10/31 04:41:07;;;;;;;2.03;0.90;;;;;;;;;;4940506;29;20028;-85
2022/10/31 04:43:33;;;;;;;0.90;0.65;;;;;;;;;;4935119;29;20026;-85
2022/10/31 04:45:58;;;;;;;3.88;0.88;;;;;;;;;;4940889;29;20114;-83
2022/10/31 04:48:24;;;;;;;1.15;0.75;;;;;;;;;;4942786;29;20115;-87
2022/10/31 04:50:50;;;;;;;4.15;0.70;;;;;;;;;;4937022;29;20406;-84
2022/10/31 04:53:15;;;;;;;3.15;0.50;;;;;;;;;;4945356;29;20102;-86
2022/10/31 04:55:41;;;;;;;2.15;0.85;;;;;;;;;;4943427;29;20035;-83
2022/10/31 04:58:06;;;;;;;0.75;0.52;;;;;;;;;;4942053;29;20126;-83
2022/10/31 05:00:31;;;;;;;0.98;0.80;;;;;;;;;;4941602;29;20036;-83
2022/10/31 05:02:58;;;;;;;1.95;1.33;;;;;;;;;;4942906;29;20123;-85
2022/10/31 05:05:31;;;;;;;1.20;0.80;;;;;;;;;;4940725;29;20032;-86
2022/10/31 05:07:56;;;;;;;0.70;0.70;;;;;;;;;;4942797;29;20059;-84
2022/10/31 05:10:25;;;;;;;1.38;0.70;;;;;;;;;;4945061;29;20507;-82
2022/10/31 05:12:53;;;;;;;2.05;1.35;;;;;;;;;;4941795;29;20099;-83
2022/10/31 05:15:20;;;;;;;1.80;1.45;;;;;;;;;;4939295;29;20540;-81
2022/10/31 05:17:46;;;;;;;1.95;1.10;;;;;;;;;;4942927;29;20032;-83
2022/10/31 05:20:12;;;;;;;2.08;1.20;;;;;;;;;;4936536;29;20057;-83
2022/10/31 05:22:43;;;;;;;1.00;0.82;;;;;;;;;;4938296;29;20032;-84
2022/10/31 05:25:08;;;;;;;4.43;1.58;;;;;;;;;;4939956;29;20489;-86
2022/10/31 05:27:34;;;;;;;1.85;1.02;;;;;;;;;;4938533;29;20140;-85
2022/10/31 05:29:59;;;;;;;2.30;1.55;;;;;;;;;;4943219;29;20020;-83
2022/10/31 05:32:25;;;;;;;2.25;1.45;;;;;;;;;;4942072;29;20110;-84
2022/10/31 05:34:50;;;;;;;2.63;1.85;;;;;;;;;;4937781;29;20159;-84
2022/10/31 05:37:15;;;;;;;2.17;1.65;;;;;;;;;;4945692;29;20503;-83
2022/10/31 05:39:41;;;;;;;2.03;1.58;;;;;;;;;;4936732;29;20027;-85
2022/10/31 05:42:06;;;;;;;2.00;1.33;;;;;;;;;;4937865;28;20453;-86
2022/10/31 05:44:31;;;;;;;1.42;1.10;;;;;;;;;;4936789;29;20029;-85
2022/10/31 05:46:57;;;;;;;1.98;1.08;;;;;;;;;;4943946;29;20023;-83
2022/10/31 05:49:22;;;;;;;1.65;1.23;;;;;;;;;;4937942;29;20027;-85
2022/10/31 05:51:48;;;;;;;3.25;1.10;;;;;;;;;;4934217;29;20084;-84
2022/10/31 05:54:13;;;;;;;1.13;1.00;;;;;;;;;;4944676;29;20083;-84
2022/10/31 05:56:39;;;;;;;1.75;1.42;;;;;;;;;;4938863;29;20038;-84
2022/10/31 05:59:04;;;;;;;3.75;2.08;;;;;;;;;;4936848;29;20031;-84
2022/10/31 06:01:29;;;;;;;2.35;2.08;;;;;;;;;;4939134;29;20059;-83
2022/10/31 06:03:55;;;;;;;3.13;2.30;;;;;;;;;;4944655;29;20019;-84
2022/10/31 06:06:20;;;;;;;3.28;2.20;;;;;;;;;;4938984;29;20086;-84
2022/10/31 06:08:46;;;;;;;2.10;1.35;;;;;;;;;;4942133;29;20082;-84
2022/10/31 06:11:11;;;;;;;3.45;2.45;;;;;;;;;;4937919;29;20031;-83
2022/10/31 06:13:36;;;;;;;3.63;2.45;;;;;;;;;;4946357;29;20115;-85
2022/10/31 06:16:02;;;;;;;3.85;2.00;;;;;;;;;;4941065;29;20031;-83
2022/10/31 06:18:27;;;;;;;2.90;1.85;;;;;;;;;;4940985;29;20109;-83
2022/10/31 06:20:53;;;;;;;3.67;2.30;;;;;;;;;;4940777;29;20023;-83
2022/10/31 06:23:18;;;;;;;5.40;3.45;;;;;;;;;;4944909;29;20035;-83
2022/10/31 06:25:48;;;;;;;5.63;3.50;;;;;;;;;;4943772;29;20032;-82
2022/10/31 06:28:14;;;;;;;3.92;2.65;;;;;;;;;;4935861;29;20401;-83
2022/10/31 06:30:39;;;;;;;4.55;2.45;;;;;;;;;;4938904;29;20036;-84
2022/10/31 06:33:05;;;;;;;7.35;3.10;;;;;;;;;;4937661;29;20079;-84
2022/10/31 06:35:31;;;;;;;4.35;2.60;;;;;;;;;;4939683;29;20036;-82
2022/10/31 06:37:56;;;;;;;3.85;2.63;;;;;;;;;;4938780;29;20492;-83
2022/10/31 06:40:22;;;;;;;2.90;2.25;;;;;;;;;;4942381;29;20031;-82
2022/10/31 06:42:59;;;;;;;5.10;2.85;;;;;;;;;;4944349;29;20031;-84
2022/10/31 06:45:24;;;;;;;5.65;3.00;;;;;;;;;;4940170;29;20145;-83
2022/10/31 06:47:53;;;;;;;10.65;5.78;;;;;;;;;;4940128;29;20035;-84
2022/10/31 06:50:20;;;;;;;9.45;5.65;;;;;;;;;;4936223;29;20045;-84
2022/10/31 06:52:56;;;;;;;9.00;6.07;;;;;;;;;;4939857;29;20070;-84
2022/10/31 06:55:24;;;;;;;7.85;3.15;;;;;;;;;;4943768;29;20472;-83
2022/10/31 06:58:00;;;;;;;6.15;4.03;;;;;;;;;;4948504;28;20031;-85
2022/10/31 07:00:27;;;;;;;6.95;2.88;;;;;;;;;;4947132;29;20035;-85
2022/10/31 07:03:05;;;;;;;3.10;2.63;;;;;;;;;;4942018;29;20381;-85
2022/10/31 07:05:31;;;;;;;3.65;2.67;;;;;;;;;;4947654;29;20023;-84
2022/10/31 07:07:58;;;;;;;4.15;2.72;;;;;;;;;;4948790;29;20095;-84
2022/10/31 07:10:25;;;;;;;6.32;2.63;;;;;;;;;;4945189;29;20388;-84
2022/10/31 07:12:55;;;;;;;5.40;3.58;;;;;;;;;;4942900;29;20019;-83
2022/10/31 07:15:22;;;;;;;5.03;3.63;;;;;;;;;;4941475;29;20038;-82
2022/10/31 07:17:47;;;;;;;9.23;6.10;;;;;;;;;;4942006;29;20455;-84
2022/10/31 07:20:13;;;;;;;10.43;6.20;;;;;;;;;;4944255;29;20063;-83
2022/10/31 07:22:39;;;;;;;4.03;2.80;;;;;;;;;;4947392;29;20118;-83
2022/10/31 07:25:04;;;;;;;5.63;3.13;;;;;;;;;;4945099;29;20105;-82
2022/10/31 07:27:36;;;;;;;9.43;4.30;;;;;;;;;;4942635;29;20086;-84
2022/10/31 07:30:02;;;;;;;13.50;3.85;;;;;;;;;;4948642;29;20118;-84
2022/10/31 07:32:27;;;;;;;5.18;3.15;;;;;;;;;;4943727;29;20102;-83
2022/10/31 07:34:53;;;;;;;6.32;3.50;;;;;;;;;;4942592;29;20051;-85
2022/10/31 07:37:18;;;;;;;6.10;3.92;;;;;;;;;;4946044;29;20428;-83
2022/10/31 07:39:44;;;;;;;7.47;3.92;;;;;;;;;;4943474;29;20040;-86
2022/10/31 07:42:09;;;;;;;8.75;3.00;;;;;;;;;;4947185;29;20038;-84
2022/10/31 07:44:34;;;;;;;5.53;4.00;;;;;;;;;;4944113;29;20032;-83
2022/10/31 07:47:00;;;;;;;4.75;3.42;;;;;;;;;;4940603;29;20039;-82
2022/10/31 07:49:25;;;;;;;9.27;3.15;;;;;;;;;;4943761;29;20075;-83
2022/10/31 07:51:50;;;;;;;4.88;3.10;;;;;;;;;;4944000;29;20456;-84
2022/10/31 07:54:16;;;;;;;10.77;3.92;;;;;;;;;;4944972;29;20031;-83
2022/10/31 07:56:41;;;;;;;4.75;3.45;;;;;;;;;;4943505;29;20027;-82
2022/10/31 07:59:07;;;;;;;4.30;3.03;;;;;;;;;;4943087;29;20035;-83
2022/10/31 08:01:32;;;;;;;5.07;2.80;;;;;;;;;;4943873;29;20047;-83
2022/10/31 08:03:57;;;;;;;7.00;3.85;;;;;;;;;;4947045;28;20035;-82
2022/10/31 08:06:23;;;;;;;7.47;3.63;;;;;;;;;;4939227;29;20214;-83
2022/10/31 08:08:48;;;;;;;6.15;3.13;;;;;;;;;;4943707;29;20032;-85
2022/10/31 08:11:14;;;;;;;5.82;3.45;;;;;;;;;;4945245;29;20102;-85
2022/10/31 08:13:40;;;;;;;5.70;3.22;;;;;;;;;;4941833;29;20436;-85
2022/10/31 08:16:07;;;;;;;5.43;3.05;;;;;;;;;;4940050;29;20035;-85
2022/10/31 08:18:32;;;;;;;7.60;4.05;;;;;;;;;;4943262;29;20087;-83
2022/10/31 08:20:58;;;;;;;6.40;4.13;;;;;;;;;;4941308;29;20031;-83
2022/10/31 08:23:23;;;;;;;6.88;4.22;;;;;;;;;;4948233;29;20127;-83
2022/10/31 08:25:48;;;;;;;3.97;3.05;;;;;;;;;;4945422;29;20031;-83
2022/10/31 08:28:14;;;;;;;7.43;3.55;;;;;;;;;;4945630;29;20087;-83
2022/10/31 08:30:41;;;;;;;7.55;3.25;;;;;;;;;;4945408;29;20097;-83
2022/10/31 08:33:11;;;;;;;4.85;3.70;;;;;;;;;;4943900;29;20031;-83
2022/10/31 08:35:37;;;;;;;8.68;3.38;;;;;;;;;;4943646;29;20083;-83
2022/10/31 08:38:03;;;;;;;6.88;3.15;;;;;;;;;;4942062;29;20103;-81
2022/10/31 08:40:30;;;;;;;8.88;4.25;;;;;;;;;;4941839;29;20086;-84
2022/10/31 08:42:57;;;;;;;6.43;3.67;;;;;;;;;;4938869;29;20071;-83
2022/10/31 08:45:23;;;;;;;5.85;3.67;;;;;;;;;;4937668;29;20452;-83
2022/10/31 08:47:49;;;;;;;4.07;3.25;;;;;;;;;;4944566;28;20512;-84
2022/10/31 08:50:14;;;;;;;8.13;3.97;;;;;;;;;;4944610;29;20039;-86
2022/10/31 08:52:40;;;;;;;4.93;3.67;;;;;;;;;;4947894;29;20023;-85
2022/10/31 08:55:05;;;;;;;8.68;3.25;;;;;;;;;;4943596;29;20078;-85
2022/10/31 08:57:37;;;;;;;10.88;4.18;;;;;;;;;;4946320;29;20027;-86
2022/10/31 09:00:03;;;;;;;7.97;4.38;;;;;;;;;;4943248;29;20524;-85
2022/10/31 09:02:28;;;;;;;9.25;3.45;;;;;;;;;;4944747;29;20055;-87
2022/10/31 09:04:54;;;;;;;3.90;3.13;;;;;;;;;;4945209;29;20055;-86
2022/10/31 09:07:19;;;;;;;7.50;3.65;;;;;;;;;;4946347;29;20031;-86
2022/10/31 09:09:44;;;;;;;4.90;3.60;;;;;;;;;;4945711;29;20031;-84
2022/10/31 09:12:12;;;;;;;4.13;2.80;;;;;;;;;;4941934;29;20032;-86
2022/10/31 09:14:37;;;;;;;5.10;2.58;;;;;;;;;;4939180;29;20019;-86
2022/10/31 09:17:03;;;;;;;4.47;2.70;;;;;;;;;;4939960;29;20159;-87
2022/10/31 09:19:28;;;;;;;4.45;2.65;;;;;;;;;;4945535;29;20062;-88
2022/10/31 09:21:54;;;;;;;3.22;2.13;;;;;;;;;;4950212;29;20035;-88
2022/10/31 09:24:19;;;;;;;5.13;1.65;;;;;;;;;;4943106;29;20054;-88
2022/10/31 09:26:45;;;;;;;2.40;1.40;;;;;;;;;;4945443;29;20472;-86
2022/10/31 09:29:10;;;;;;;2.22;1.35;;;;;;;;;;4944951;29;20118;-86
2022/10/31 09:31:36;;;;;;;1.35;0.90;;;;;;;;;;4950263;29;20087;-86
2022/10/31 09:34:01;;;;;;;1.65;0.73;;;;;;;;;;4944529;29;20106;-86
2022/10/31 09:36:27;;;;;;;1.48;1.20;;;;;;;;;;4946265;29;20035;-86
2022/10/31 09:38:52;;;;;;;4.80;1.33;;;;;;;;;;4946746;29;20034;-86
2022/10/31 09:41:40;;;;;;;1.75;1.05;;;;;;;;;;4943493;29;20050;-85
2022/10/31 09:44:11;;;;;;;0.50;0.50;;;;;;;;;;4943940;29;20059;-87
2022/10/31 09:46:42;;;;;;;1.05;0.55;;;;;;;;;;4942182;29;20032;-86
2022/10/31 09:49:37;;;;;;;1.52;0.70;;;;;;;;;;4946110;29;20023;-85
2022/10/31 09:52:21;;;;;;;4.95;1.00;;;;;;;;;;4949496;29;20019;-85
2022/10/31 09:55:05;;;;;;;1.75;1.10;;;;;;;;;;4942377;29;20038;-84
2022/10/31 09:57:36;;;;;;;0.70;0.70;;;;;;;;;;4944431;29;20031;-86
2022/10/31 10:00:05;;;;;;;1.70;0.55;;;;;;;;;;4939738;29;20555;-85
2022/10/31 10:02:43;;;;;;;0.83;0.73;;;;;;;;;;4945829;29;20043;-85
2022/10/31 10:05:17;;;;;;;1.40;0.50;;;;;;;;;;4946495;29;21399;-85
2022/10/31 10:07:45;;;;;;;1.27;0.80;;;;;;;;;;4939702;29;20515;-85
2022/10/31 10:10:32;;;;;;;0.95;0.85;;;;;;;;;;4945512;29;20085;-86
2022/10/31 10:13:13;;;;;;;1.40;1.00;;;;;;;;;;4945899;29;20070;-86
2022/10/31 10:16:23;;;;;;;0.57;0.50;;;;;;;;;;4944362;29;20031;-85
2022/10/31 10:19:19;;;;;;;1.58;0.73;;;;;;;;;;4939500;29;20039;-85
2022/10/31 10:22:02;;;;;;;0.82;0.60;;;;;;;;;;4941910;29;20030;-85
2022/10/31 10:24:32;;;;;;;5.30;0.80;;;;;;;;;;4942221;29;20070;-84
2022/10/31 10:27:36;;;;;;;2.30;1.15;;;;;;;;;;4954766;28;20479;-85
2022/10/31 10:30:10;;;;;;;1.08;0.73;;;;;;;;;;4931397;29;20040;-85
2022/10/31 10:32:49;;;;;;;2.10;0.70;;;;;;;;;;4955499;29;20476;-85
2022/10/31 10:35:19;;;;;;;0.88;0.70;;;;;;;;;;4949159;28;20067;-87
2022/10/31 10:37:48;;;;;;;2.55;0.93;;;;;;;;;;4951622;29;20077;-85
2022/10/31 10:40:18;;;;;;;2.47;1.05;;;;;;;;;;4949505;28;20027;-84
2022/10/31 10:43:25;;;;;;;0.68;0.60;;;;;;;;;;4950149;29;20561;-85
2022/10/31 10:48:45;;;;;;;1.42;0.47;;;;;;;;;;4950674;28;20054;-87
2022/10/31 10:51:36;;;;;;;1.50;0.80;;;;;;;;;;4943742;29;20036;-88
2022/10/31 10:54:17;;;;;;;1.20;0.60;;;;;;;;;;4962061;28;20035;-84
2022/10/31 10:57:05;;;;;;;1.10;0.70;;;;;;;;;;4946385;29;20055;-84
2022/10/31 10:59:31;;;;;;;1.73;0.95;;;;;;;;;;4947856;29;20034;-88
2022/10/31 11:01:59;;;;;;;7.38;1.30;;;;;;;;;;4953043;29;20047;-85
2022/10/31 11:04:35;;;;;;;0.47;0.40;;;;;;;;;;4949881;29;20028;-85
2022/10/31 11:07:10;;;;;;;0.63;0.50;;;;;;;;;;4949592;29;20106;-85
2022/10/31 11:09:36;;;;;;;0.85;0.68;;;;;;;;;;4949437;29;20059;-85
2022/10/31 11:12:16;;;;;;;3.03;0.95;;;;;;;;;;4951463;29;20424;-86
2022/10/31 11:14:52;;;;;;;1.17;0.77;;;;;;;;;;4943562;29;20551;-85
2022/10/31 11:17:24;;;;;;;0.82;0.47;;;;;;;;;;4949592;29;20055;-85
2022/10/31 11:20:00;;;;;;;3.83;0.90;;;;;;;;;;4951423;28;20111;-85
2022/10/31 11:22:26;;;;;;;2.60;0.93;;;;;;;;;;4953910;28;20114;-85
2022/10/31 11:24:51;;;;;;;2.60;0.77;;;;;;;;;;4961339;28;20023;-85
2022/10/31 11:27:23;;;;;;;1.77;0.80;;;;;;;;;;4946813;29;20431;-84
2022/10/31 11:29:51;;;;;;;1.70;0.90;;;;;;;;;;4946190;29;20034;-86
2022/10/31 11:32:23;;;;;;;1.65;0.95;;;;;;;;;;4948221;29;20050;-84
2022/10/31 11:35:01;;;;;;;3.85;0.95;;;;;;;;;;4951758;29;20023;-86
2022/10/31 11:37:29;;;;;;;0.98;0.60;;;;;;;;;;4943253;29;20031;-86
2022/10/31 11:40:01;;;;;;;1.02;0.80;;;;;;;;;;4942181;29;21604;-84
2022/10/31 11:42:29;;;;;;;1.02;0.82;;;;;;;;;;4946970;28;20043;-85
2022/10/31 11:44:55;;;;;;;1.33;1.00;;;;;;;;;;4944895;29;20035;-84
2022/10/31 11:47:29;;;;;;;1.80;0.98;;;;;;;;;;4947298;29;20035;-84
2022/10/31 11:49:56;;;;;;;1.00;0.60;;;;;;;;;;4944289;29;20066;-84
2022/10/31 11:52:27;;;;;;;2.00;0.60;;;;;;;;;;4945048;29;20039;-85
2022/10/31 11:55:00;;;;;;;1.77;1.00;;;;;;;;;;4950855;29;20102;-85
2022/10/31 11:57:29;;;;;;;1.38;0.70;;;;;;;;;;4950141;29;20101;-87
2022/10/31 12:00:00;;;;;;;2.60;1.08;;;;;;;;;;4950377;29;20026;-86
2022/10/31 12:02:26;;;;;;;1.55;0.90;;;;;;;;;;4948976;29;20171;-84
2022/10/31 12:05:11;;;;;;;0.93;0.80;;;;;;;;;;4945038;29;20106;-84
2022/10/31 12:07:36;;;;;;;1.80;0.88;;;;;;;;;;4964451;28;20471;-85
2022/10/31 12:10:10;;;;;;;1.50;0.90;;;;;;;;;;4949078;29;20023;-84
2022/10/31 12:12:43;;;;;;;2.17;0.90;;;;;;;;;;4937104;29;20058;-83
2022/10/31 12:15:36;;;;;;;0.75;0.70;;;;;;;;;;4945981;29;20166;-84
2022/10/31 12:18:22;;;;;;;0.95;0.80;;;;;;;;;;4941073;29;20079;-86
2022/10/31 12:21:08;;;;;;;1.42;0.93;;;;;;;;;;4949704;29;20023;-84
2022/10/31 12:23:59;;;;;;;2.20;0.80;;;;;;;;;;4942737;29;20033;-84
2022/10/31 12:26:46;;;;;;;2.58;1.17;;;;;;;;;;4942247;29;20031;-84
2022/10/31 12:29:17;;;;;;;0.90;0.60;;;;;;;;;;4941168;29;20054;-84
2022/10/31 12:31:49;;;;;;;2.15;0.80;;;;;;;;;;4949902;29;20079;-84
2022/10/31 12:34:26;;;;;;;1.77;1.20;;;;;;;;;;4938751;29;20036;-83
2022/10/31 12:37:03;;;;;;;4.53;1.00;;;;;;;;;;4944812;29;20038;-83
2022/10/31 12:39:53;;;;;;;1.77;1.35;;;;;;;;;;4945921;29;20032;-84
2022/10/31 12:42:22;;;;;;;4.10;1.27;;;;;;;;;;4956637;28;20031;-84
2022/10/31 12:44:53;;;;;;;1.88;0.85;;;;;;;;;;4943630;29;20490;-83
2022/10/31 12:47:43;;;;;;;2.78;0.98;;;;;;;;;;4945164;29;20422;-84
2022/10/31 12:50:31;;;;;;;1.05;0.55;;;;;;;;;;4943998;29;20027;-84
2022/10/31 12:53:19;;;;;;;3.70;1.15;;;;;;;;;;4945167;29;20468;-84
2022/10/31 12:55:50;;;;;;;4.70;1.10;;;;;;;;;;4937830;29;20082;-84
2022/10/31 12:58:24;;;;;;;1.88;1.08;;;;;;;;;;4949199;29;20504;-83
2022/10/31 13:01:16;;;;;;;1.55;1.00;;;;;;;;;;4946037;29;20062;-84
2022/10/31 13:04:01;;;;;;;5.22;0.80;;;;;;;;;;4941919;29;20482;-83
2022/10/31 13:06:46;;;;;;;1.58;0.82;;;;;;;;;;4941848;29;20027;-84
2022/10/31 13:09:18;;;;;;;1.73;0.90;;;;;;;;;;4940667;29;20054;-84
2022/10/31 13:11:55;;;;;;;1.20;0.70;;;;;;;;;;4951245;29;20439;-84
2022/10/31 13:14:49;;;;;;;1.30;0.88;;;;;;;;;;4944308;29;20030;-84
2022/10/31 13:17:41;;;;;;;0.95;0.80;;;;;;;;;;4939739;29;20044;-84
2022/10/31 13:20:23;;;;;;;1.33;0.70;;;;;;;;;;4929207;29;20089;-84
2022/10/31 13:22:54;;;;;;;2.13;1.02;;;;;;;;;;4940335;29;20035;-83
2022/10/31 13:25:22;;;;;;;2.05;0.77;;;;;;;;;;4938062;29;20032;-84
2022/10/31 13:27:56;;;;;;;0.90;0.80;;;;;;;;;;4921881;29;20115;-83
2022/10/31 13:30:25;;;;;;;1.45;1.13;;;;;;;;;;4940043;29;20035;-83
2022/10/31 13:33:15;;;;;;;5.35;1.30;;;;;;;;;;4942259;29;20074;-86
2022/10/31 13:36:08;;;;;;;3.53;1.08;;;;;;;;;;4937768;29;20034;-86
2022/10/31 13:38:57;;;;;;;5.00;1.35;;;;;;;;;;4924488;29;20023;-86
2022/10/31 13:41:44;;;;;;;2.73;1.17;;;;;;;;;;4946835;29;20031;-85
2022/10/31 13:44:21;;;;;;;1.98;0.85;;;;;;;;;;4942147;28;20034;-86
2022/10/31 13:46:47;;;;;;;3.70;1.13;;;;;;;;;;4944195;29;20452;-85
2022/10/31 13:49:28;;;;;;;1.55;0.63;;;;;;;;;;4929074;29;20034;-85
2022/10/31 13:52:05;;;;;;;1.45;0.98;;;;;;;;;;4921555;29;20028;-85
2022/10/31 13:54:35;;;;;;;1.25;0.82;;;;;;;;;;4940891;29;20069;-87
2022/10/31 13:57:01;;;;;;;1.13;0.73;;;;;;;;;;4942131;29;20533;-87
2022/10/31 13:59:28;;;;;;;3.25;0.82;;;;;;;;;;4939505;29;20059;-86
2022/10/31 14:02:02;;;;;;;1.27;0.73;;;;;;;;;;4937540;29;20059;-85
2022/10/31 14:04:36;;;;;;;1.17;0.90;;;;;;;;;;4943077;29;20031;-85
2022/10/31 14:07:08;;;;;;;2.08;0.98;;;;;;;;;;4941653;29;20036;-87
2022/10/31 14:09:41;;;;;;;4.43;1.20;;;;;;;;;;4941721;29;20035;-87
2022/10/31 14:12:22;;;;;;;1.30;0.80;;;;;;;;;;4943038;29;20035;-87
2022/10/31 14:14:54;;;;;;;1.38;1.05;;;;;;;;;;4935693;29;20033;-87
2022/10/31 14:17:23;;;;;;;2.85;1.02;;;;;;;;;;4943508;29;20027;-87
2022/10/31 14:20:00;;;;;;;2.72;0.98;;;;;;;;;;4940227;29;20035;-88
2022/10/31 14:22:31;;;;;;;4.18;0.73;;;;;;;;;;4948048;29;20121;-87
2022/10/31 14:24:56;;;;;;;1.08;0.85;;;;;;;;;;4946494;28;20038;-87
2022/10/31 14:27:35;;;;;;;0.88;0.57;;;;;;;;;;4940746;29;20031;-87
2022/10/31 14:30:14;;;;;;;2.57;0.73;;;;;;;;;;4939656;29;20020;-87
2022/10/31 14:32:42;;;;;;;0.57;0.57;;;;;;;;;;4945394;29;20049;-87
2022/10/31 14:35:15;;;;;;;1.63;0.70;;;;;;;;;;4945026;29;20536;-87
2022/10/31 14:38:21;;;;;;;0.73;0.73;;;;;;;;;;4936731;29;20038;-87
2022/10/31 14:41:17;;;;;;;1.63;0.70;;;;;;;;;;4937842;29;20408;-86
2022/10/31 14:44:07;;;;;;;1.05;0.80;;;;;;;;;;4944916;29;20023;-85
2022/10/31 14:46:41;;;;;;;4.72;1.10;;;;;;;;;;4935586;29;20544;-85
2022/10/31 14:49:38;;;;;;;1.20;0.98;;;;;;;;;;4935727;29;20106;-86
2022/10/31 14:52:07;;;;;;;1.55;0.90;;;;;;;;;;4942386;29;20537;-87
2022/10/31 14:54:37;;;;;;;1.88;0.80;;;;;;;;;;4946854;29;20079;-86
2022/10/31 14:57:07;;;;;;;1.00;0.82;;;;;;;;;;4943833;29;20114;-87
2022/10/31 14:59:35;;;;;;;;;;;;;;;;;;4942020;29;20031;-87
2022/10/31 15:02:12;;;;;;;1.17;0.80;;;;;;;;;;4937849;29;19918;-86
2022/10/31 15:04:39;;;;;;;1.55;0.80;;;;;;;;;;4934829;29;20448;-85
2022/10/31 15:07:14;;;;;;;0.95;0.77;;;;;;;;;;4943127;29;20039;-85
2022/10/31 15:09:43;;;;;;;1.58;1.00;;;;;;;;;;4937948;29;20484;-85